Latest Coastal Weather Observations for Maroochydore

IDQ60701

Issued at 1:33 am EST Sunday 14 February 2016 (issued every 10 minutes, with the page automatically refreshed every 10 minutes)

About coastal observations | Map of coastal stations | Coastal observations for QLD | Marine services | Other Formats
Station Details ID: 040861 Name: SUNSHINE COAST AIRPORT Lat: -26.60 Lon: 153.09 Height: 3.3 m
Data from the previous 72 hours. | See also: Recent months at Maroochydore
Date/Time
EST
Temp

°C
Wind Pressure Rain
since 9am
mm
Weather Cloud Vis
km
Sea
Height
m
Swell
Dir
 
Speed
knots
Gust
knots
hPa Trend Height
m
Period
s
Dir
14/01:30am 22.2 SSW 10 14 1007.8 - 17.0 - Partly cloudy 10 - - - -
14/01:00am 22.2 SSW 10 14 1008.2 - 17.0 - Partly cloudy 10 - - - -
14/12:30am 22.5 SSW 11 16 1008.6 - 17.0 - Partly cloudy 10 - - - -
14/12:00am 22.8 SSW 10 13 1008.9 - 17.0 - Mostly cloudy 10 - - - -
 
Date/Time
EST
Temp

°C
Wind Pressure Rain
since 9am
mm
Weather Cloud Vis
km
Sea
Height
m
Swell
Dir
 
Speed
knots
Gust
knots
hPa Trend Height
m
Period
s
Dir
13/11:30pm 23.0 SSW 9 12 1009.2 - 17.0 - Partly cloudy 10 - - - -
13/11:00pm 23.2 S 10 12 1009.4 - 17.0 - Partly cloudy 10 - - - -
13/10:30pm 23.5 SSW 9 11 1009.7 - 17.0 - Cloudy 10 - - - -
13/10:00pm 24.1 S 13 22 1009.7 - 17.0 - Partly cloudy 10 - - - -
13/09:30pm 24.1 S 14 23 1009.8 - 17.0 - Cloudy 10 - - - -
13/09:00pm 24.1 S 14 20 1009.7 - 17.0 - Mostly clear 10 - - - -
13/08:30pm 24.1 S 14 20 1009.8 - 17.0 - - 10 - - - -
13/08:07pm 24.4 S 16 27 1009.8 - 17.0 - Partly cloudy 10 - - - -
13/08:00pm 24.6 SSE 16 22 1009.8 - 17.0 - Partly cloudy 10 - - - -
13/07:30pm 24.7 SSE 16 24 1009.6 - 17.0 - Partly cloudy 10 - - - -
13/07:18pm 24.8 SSE 17 27 1009.5 - 17.0 - Partly cloudy 10 - - - -
13/07:00pm 24.7 SSE 16 21 1009.4 - 17.0 - Partly cloudy 10 - - - -
13/06:30pm 24.8 SSE 16 23 1008.9 - 17.0 - - 10 - - - -
13/06:00pm 25.0 S 15 21 1008.6 - 17.0 - Mostly clear 10 - - - -
13/05:30pm 25.3 SSE 15 23 1008.5 - 17.0 - Partly cloudy 10 - - - -
13/05:00pm 25.4 SSE 17 23 1008.4 - 17.0 - Partly cloudy 10 - - - -
13/04:30pm 25.4 SSE 16 22 1008.5 - 17.0 - Partly cloudy 10 - - - -
13/04:00pm 25.7 SSE 17 24 1008.6 - 17.0 - Partly cloudy 10 - - - -
13/03:30pm 25.2 SSE 16 24 1008.6 - 17.0 - Partly cloudy 10 - - - -
13/03:00pm 24.3 SSE 17 24 1008.5 - 17.0 - Cloudy 10 - - - -
13/02:30pm 23.1 S 13 18 1008.5 - 16.8 - Partly cloudy 9 - - - -
13/02:03pm 23.1 S 11 16 1008.6 - 16.2 - Partly cloudy 10 - - - -
13/02:00pm 22.8 S 11 16 1008.6 - 16.2 - Partly cloudy 10 - - - -
13/01:57pm 22.9 SSW 11 15 1008.6 - 16.2 - Partly cloudy 10 - - - -
13/01:42pm 22.5 S 8 11 1009.0 - 16.0 - Partly cloudy 6 - - - -
13/01:41pm 22.5 S 9 11 1009.0 - 16.0 - Partly cloudy 7 - - - -
13/01:30pm 22.5 SSW 12 17 1009.0 - 14.8 - Partly cloudy 10 - - - -
13/01:00pm 22.2 S 15 22 1009.3 - 14.2 - Partly cloudy 10 - - - -
13/12:59pm 22.3 S 15 22 1009.4 - 14.0 - Partly cloudy 10 - - - -
13/12:52pm 22.2 S 13 18 1009.4 - 14.0 - Partly cloudy 10 - - - -
13/12:35pm 22.6 S 18 25 1009.6 - 12.0 - Partly cloudy 5 - - - -
13/12:30pm 22.9 S 17 23 1009.6 - 10.6 - Partly cloudy 10 - - - -
13/12:15pm 22.9 S 17 25 1009.6 - 10.6 - Partly cloudy 10 - - - -
13/12:00pm 22.3 S 12 18 1009.8 - 10.4 - Cloudy 4 - - - -
13/11:55am 22.5 S 12 16 1010.0 - 9.6 - Partly cloudy 5 - - - -
13/11:30am 22.3 S 12 17 1010.3 - 7.6 - Partly cloudy 10 - - - -
13/11:28am 22.2 S 12 17 1010.4 - 7.6 - Partly cloudy 10 - - - -
13/11:26am 22.3 S 12 14 1010.4 - 7.4 - Partly cloudy 10 - - - -
13/11:06am 22.2 S 16 21 1010.6 - 6.2 - Partly cloudy 2 - - - -
13/11:00am 22.4 S 16 23 1010.6 - 4.2 - Partly cloudy 3 - - - -
13/10:58am 22.7 S 16 23 1010.5 - 2.2 - Partly cloudy 5 - - - -
13/10:54am 23.3 S 17 23 1010.4 - 0.6 - Partly cloudy 10 - - - -
13/10:30am 25.7 S 18 26 1009.9 - 0.2 - Partly cloudy 10 - - - -
13/10:06am 24.7 S 16 27 1010.2 - 0.2 - Partly cloudy 10 - - - -
13/10:00am 24.7 S 18 25 1010.1 - 0.2 - Partly cloudy 10 - - - -
13/09:30am 24.8 S 14 19 1010.4 - 0.0 - Partly cloudy 10 - - - -
13/09:00am 23.5 S 14 21 1010.6 - 0.4 - Cloudy 10 - - - -
13/08:30am 23.2 S 14 18 1010.5 - 0.4 - Partly cloudy 10 - - - -
13/08:00am 22.5 S 15 21 1010.7 - 0.4 - Partly cloudy 10 - - - -
13/07:30am 22.7 S 14 21 1010.5 - 0.0 - Partly cloudy 10 - - - -
13/07:00am 23.1 S 13 18 1010.1 - 0.0 - Partly cloudy 10 - - - -
13/06:30am 22.6 SSW 12 16 1009.9 - 0.0 - Partly cloudy 10 - - - -
13/06:00am 22.1 SSW 12 17 1009.5 - 0.0 - Cloudy 10 - - - -
13/05:30am 21.9 S 10 14 1009.4 - 0.0 - Partly cloudy 10 - - - -
13/05:00am 22.0 S 11 17 1009.0 - 0.0 - Partly cloudy 10 - - - -
13/04:30am 21.8 SSW 13 22 1008.9 - 0.0 - - 10 - - - -
13/04:00am 21.9 S 13 19 1008.8 - 0.0 - Partly cloudy 10 - - - -
13/03:30am 22.0 S 11 16 1009.1 - 0.0 - Partly cloudy 10 - - - -
13/03:00am 21.6 S 11 17 1009.3 - 0.0 - Cloudy 10 - - - -
13/02:30am 22.6 S 12 16 1009.5 - 0.0 - Partly cloudy 10 - - - -
13/02:00am 22.7 S 11 15 1009.8 - 0.0 - Partly cloudy 10 - - - -
13/01:30am 22.9 S 10 15 1009.9 - 0.0 - Partly cloudy 10 - - - -
13/01:00am 23.7 SSW 11 18 1010.3 - 0.0 - Partly cloudy 10 - - - -
13/12:30am 24.5 SSE 14 21 1010.7 - 0.0 - Partly cloudy 10 - - - -
13/12:00am 24.6 SSE 15 22 1010.7 - 0.0 - Cloudy 10 - - - -
 
Date/Time
EST
Temp

°C
Wind Pressure Rain
since 9am
mm
Weather Cloud Vis
km
Sea
Height
m
Swell
Dir
 
Speed
knots
Gust
knots
hPa Trend Height
m
Period
s
Dir
12/11:44pm 24.7 SSE 15 25 1010.9 - 0.0 - Partly cloudy 10 - - - -
12/11:30pm 24.5 S 15 21 1011.0 - 0.0 - Partly cloudy 10 - - - -
12/11:00pm 24.8 SSE 16 22 1011.4 - 0.0 - Partly cloudy 10 - - - -
12/10:30pm 24.8 SSE 16 21 1011.8 - 0.0 - Partly cloudy 10 - - - -
12/10:00pm 24.9 SSE 15 23 1012.0 - 0.0 - Partly cloudy 10 - - - -
12/09:30pm 24.6 SSE 12 19 1012.4 - 0.0 - Partly cloudy 10 - - - -
12/09:00pm 24.6 SSE 15 21 1012.2 - 0.0 - - 10 - - - -
12/08:30pm 24.7 SSE 15 21 1012.1 - 0.0 - - 10 - - - -
12/08:00pm 24.7 SSE 15 22 1012.2 - 0.0 - Partly cloudy 10 - - - -
12/07:30pm 25.0 SSE 14 21 1012.0 - 0.0 - Partly cloudy 10 - - - -
12/07:00pm 25.1 SSE 15 20 1011.7 - 0.0 - Partly cloudy 10 - - - -
12/06:30pm 25.3 SSE 14 20 1011.7 - 0.0 - Partly cloudy 10 - - - -
12/06:00pm 25.7 SSE 16 22 1011.5 - 0.0 - - 10 - - - -
12/05:30pm 26.3 SSE 16 25 1011.1 - 0.0 - - 10 - - - -
12/05:24pm 26.5 SSE 15 25 1011.2 - 0.0 - - 10 - - - -
12/05:00pm 26.8 SE 16 21 1011.2 - 0.0 - - 10 - - - -
12/04:30pm 26.8 SE 18 24 1010.9 - 0.0 - - 10 - - - -
12/04:00pm 27.7 SE 16 23 1010.8 - 0.0 - - 10 - - - -
12/03:30pm 28.0 SE 18 24 1010.7 - 0.0 - Partly cloudy 10 - - - -
12/03:00pm 27.9 SE 18 25 1010.9 - 0.0 - Mostly cloudy 10 - - - -
12/02:30pm 28.8 SE 16 23 1011.0 - 0.0 - Partly cloudy 10 - - - -
12/02:00pm 27.9 SE 19 25 1011.1 - 0.0 - Cloudy 10 - - - -
12/01:30pm 29.4 SE 18 23 1011.3 - 0.0 - Partly cloudy 10 - - - -
12/01:00pm 28.8 SE 19 24 1011.4 - 0.0 - Partly cloudy 10 - - - -
12/12:30pm 28.6 SE 18 24 1011.4 - 0.0 - Partly cloudy 10 - - - -
12/12:00pm 29.5 SE 18 24 1011.6 - 0.0 - Mostly clear 10 - - - -
12/11:30am 29.1 SE 17 23 1011.8 - 0.0 - Partly cloudy 10 - - - -
12/11:00am 28.7 SE 16 22 1011.9 - 0.0 - - 10 - - - -
12/10:30am 25.8 SE 14 20 1012.2 - 0.0 - Partly cloudy 10 - - - -
12/10:00am 27.9 SE 14 20 1012.3 - 0.0 - Partly cloudy 10 - - - -
12/09:30am 26.3 SSE 14 20 1012.3 - 0.0 - Partly cloudy 10 - - - -
12/09:00am 26.8 SSE 15 19 1012.3 - 0.6 - Cloudy 10 - - - -
12/08:30am 24.8 S 9 12 1012.3 - 0.6 - Partly cloudy 10 - - - -
12/08:00am 23.7 S 12 17 1012.4 - 0.6 - Partly cloudy 10 - - - -
12/07:30am 23.1 S 10 14 1012.3 - 0.6 - Partly cloudy 10 - - - -
12/07:00am 22.8 S 12 17 1012.2 - 0.6 - Partly cloudy 10 - - - -
12/06:30am 21.9 S 10 14 1012.0 - 0.6 - Partly cloudy 10 - - - -
12/06:00am 21.5 SSW 9 14 1011.8 - 0.6 - Partly cloudy 10 - - - -
12/05:30am 21.8 S 12 16 1011.5 - 0.6 - Partly cloudy 10 - - - -
12/05:00am 21.9 SSW 9 12 1011.5 - 0.6 - Partly cloudy 10 - - - -
12/04:30am 21.9 S 10 13 1011.2 - 0.6 - Partly cloudy 10 - - - -
12/04:00am 22.0 S 8 11 1011.1 - 0.6 - Partly cloudy 10 - - - -
12/03:30am 22.2 SSW 9 12 1011.1 - 0.6 - Partly cloudy 10 - - - -
12/03:00am 22.2 SSW 6 8 1011.3 - 0.6 - Cloudy 10 - - - -
12/02:30am 22.8 S 8 13 1011.2 - 0.6 - Partly cloudy 10 - - - -
12/02:00am 22.5 SSW 6 8 1011.4 - 0.6 - Partly cloudy 10 - - - -
12/01:30am 23.2 S 8 14 1011.5 - 0.6 - Partly cloudy 10 - - - -
12/01:00am 23.6 S 6 10 1011.6 - 0.6 - Partly cloudy 10 - - - -
12/12:30am 24.2 SSE 10 14 1011.7 - 0.6 - Partly cloudy 10 - - - -
12/12:00am 24.6 SE 13 17 1011.9 - 0.6 - Partly cloudy 10 - - - -
 
Date/Time
EST
Temp

°C
Wind Pressure Rain
since 9am
mm
Weather Cloud Vis
km
Sea
Height
m
Swell
Dir
 
Speed
knots
Gust
knots
hPa Trend Height
m
Period
s
Dir
11/11:30pm 24.6 SE 13 19 1012.1 - 0.6 - Partly cloudy 10 - - - -
11/11:00pm 24.5 SSE 12 16 1012.3 - 0.6 - Partly cloudy 10 - - - -
11/10:30pm 24.4 SE 13 18 1012.5 - 0.6 - - 10 - - - -
11/10:00pm 24.5 SE 13 18 1012.7 - 0.6 - Partly cloudy 10 - - - -
11/09:30pm 24.6 SE 14 19 1012.7 - 0.6 - - 10 - - - -
11/09:00pm 24.8 SE 14 20 1012.7 - 0.6 - - 10 - - - -
11/08:30pm 24.8 SE 14 19 1012.7 - 0.6 - Partly cloudy 10 - - - -
11/08:00pm 24.7 SE 14 18 1012.6 - 0.6 - Partly cloudy 10 - - - -
11/07:30pm 24.8 SE 12 18 1012.5 - 0.6 - Partly cloudy 10 - - - -
11/07:00pm 24.9 SE 14 19 1012.1 - 0.6 - Partly cloudy 10 - - - -
11/06:30pm 25.0 SE 14 19 1011.9 - 0.6 - Partly cloudy 10 - - - -
11/06:00pm 25.4 SE 14 19 1011.5 - 0.6 - Mostly clear 10 - - - -
11/05:30pm 25.9 SE 15 19 1011.2 - 0.6 - Partly cloudy 10 - - - -
11/05:00pm 26.2 SE 15 21 1011.0 - 0.6 - Partly cloudy 10 - - - -
11/04:30pm 25.8 SE 15 21 1010.6 - 0.6 - Partly cloudy 10 - - - -
11/04:00pm 25.5 SSE 10 16 1010.6 - 0.6 - Partly cloudy 10 - - - -
11/03:30pm 24.2 SSE 13 23 1010.8 - 0.6 - Partly cloudy 10 - - - -
11/03:00pm 25.2 SSE 13 17 1010.8 - 0.6 - Cloudy 10 - - - -
11/02:30pm 25.5 SE 14 19 1011.2 - 0.6 - Cloudy 10 - - - -
11/02:00pm 25.8 SE 17 23 1011.3 - 0.6 - Partly cloudy 10 - - - -
11/01:30pm 26.7 SE 17 23 1011.3 - 0.6 - Partly cloudy 10 - - - -
11/01:00pm 28.4 SE 17 23 1011.4 - 0.6 - Partly cloudy 10 - - - -
11/12:30pm 28.9 SE 14 19 1011.7 - 0.6 - Partly cloudy 10 - - - -
11/12:00pm 27.5 SE 16 20 1011.8 - 0.6 - Mostly clear 10 - - - -
11/11:30am 28.1 SE 15 21 1012.0 - 0.6 - - 10 - - - -
11/11:00am 28.0 SE 15 19 1012.3 - 0.6 - Partly cloudy 10 - - - -
11/10:00am 26.7 SSE 12 17 1012.3 - 0.4 - Partly cloudy 10 - - - -
11/09:30am 24.7 S 12 16 1012.2 - 0.4 - Partly cloudy 10 - - - -
11/09:00am 25.1 S 12 17 1012.1 - 3.4 - Cloudy 10 - - - -
11/08:30am 24.7 S 11 14 - - 3.4 - Partly cloudy 10 - - - -
11/08:00am 24.5 S 10 14 1012.1 - 3.4 - Partly cloudy 10 - - - -
11/07:30am 23.1 SSW 10 13 1011.9 - 3.4 - Partly cloudy 10 - - - -
11/07:00am 22.4 S 12 16 1011.8 - 3.4 - Partly cloudy 10 - - - -
11/06:30am 22.0 SSW 11 14 1011.6 - 3.4 - Partly cloudy 10 - - - -
11/06:00am 21.6 S 10 12 1011.4 - 3.4 - Partly cloudy 10 - - - -
11/05:30am 21.8 SSW 9 13 1011.2 - 3.4 - Partly cloudy 10 - - - -
11/05:00am 21.8 SSW 9 12 1011.2 - 3.4 - Partly cloudy 10 - - - -
11/04:30am 21.6 SSW 9 12 1011.0 - 3.4 - Partly cloudy 10 - - - -
11/04:00am 21.9 S 9 12 1010.8 - 3.4 - Partly cloudy 10 - - - -
11/03:30am 22.1 S 8 11 1010.7 - 3.4 - Partly cloudy 10 - - - -
11/03:00am 22.4 SSW 8 11 1010.6 - 3.4 - Cloudy 10 - - - -
11/02:30am 22.6 SSW 6 10 1010.7 - 3.4 - Partly cloudy 10 - - - -
11/02:00am 22.9 S 7 11 1010.9 - 3.4 - Partly cloudy 10 - - - -

Other Formats:

Comma delimited format used in spreadsheet applications
http://www.bom.gov.au/fwo/IDQ60701/IDQ60701.94569.axf

JavaScript Object Notation format (JSON) in row-major order
http://www.bom.gov.au/fwo/IDQ60701/IDQ60701.94569.json